createdAt,value
2017-12-28T00:01:47.397Z,4.70
2017-12-28T00:04:14.831Z,4.80
2017-12-28T00:06:42.761Z,4.70
2017-12-28T00:09:10.195Z,4.60
2017-12-28T00:11:37.657Z,4.70
2017-12-28T00:14:05.092Z,4.70
2017-12-28T00:16:32.601Z,4.70
2017-12-28T00:19:00.033Z,4.60
2017-12-28T00:21:28.296Z,4.60
2017-12-28T00:23:55.739Z,4.60
2017-12-28T00:26:24.070Z,4.60
2017-12-28T00:28:51.518Z,4.60
2017-12-28T00:31:18.979Z,4.50
2017-12-28T00:33:46.422Z,4.50
2017-12-28T00:36:13.879Z,4.50
2017-12-28T00:38:41.320Z,4.40
2017-12-28T00:41:08.764Z,4.50
2017-12-28T00:43:36.221Z,4.40
2017-12-28T00:46:03.678Z,4.40
2017-12-28T00:48:31.124Z,4.30
2017-12-28T00:50:58.580Z,4.30
2017-12-28T00:53:26.438Z,4.20
2017-12-28T00:55:54.834Z,4.20
2017-12-28T00:58:22.291Z,4.20
2017-12-28T01:00:49.785Z,4.10
2017-12-28T01:03:17.261Z,4.30
2017-12-28T01:05:44.725Z,4.30
2017-12-28T01:08:12.632Z,4.20
2017-12-28T01:10:40.111Z,4.20
2017-12-28T01:13:07.602Z,4.10
2017-12-28T01:15:35.066Z,4.10
2017-12-28T01:18:02.929Z,4.00
2017-12-28T01:20:31.633Z,4.00
2017-12-28T01:22:59.142Z,4.00
2017-12-28T01:25:26.688Z,4.00
2017-12-28T01:27:54.154Z,3.90
2017-12-28T01:30:23.588Z,4.00
2017-12-28T01:32:51.048Z,4.00
2017-12-28T01:35:18.481Z,3.90
2017-12-28T01:37:45.979Z,3.90
2017-12-28T01:40:13.477Z,4.00
2017-12-28T01:42:40.942Z,3.90
2017-12-28T01:45:08.394Z,3.90
2017-12-28T01:47:35.843Z,3.90
2017-12-28T01:50:03.289Z,3.90
2017-12-28T01:52:30.722Z,3.90
2017-12-28T01:54:58.168Z,3.90
2017-12-28T01:57:26.058Z,3.90
2017-12-28T01:59:54.445Z,3.90
2017-12-28T02:02:21.874Z,3.80
2017-12-28T02:04:49.710Z,3.90
2017-12-28T02:07:17.147Z,3.90
2017-12-28T02:09:44.581Z,4.00
2017-12-28T02:12:12.025Z,4.10
2017-12-28T02:14:39.454Z,4.00
2017-12-28T02:17:08.170Z,4.10
2017-12-28T02:19:35.614Z,4.10
2017-12-28T02:22:04.016Z,4.00
2017-12-28T02:24:31.468Z,3.90
2017-12-28T02:26:58.907Z,4.10
2017-12-28T02:29:26.353Z,4.00
2017-12-28T02:31:54.179Z,4.10
2017-12-28T02:34:22.581Z,4.10
2017-12-28T02:36:50.024Z,4.00
2017-12-28T02:39:17.486Z,4.00
2017-12-28T02:41:44.909Z,4.00
2017-12-28T02:44:12.336Z,3.90
2017-12-28T02:46:39.789Z,3.90
2017-12-28T02:49:07.228Z,3.90
2017-12-28T02:51:34.669Z,3.90
2017-12-28T02:54:02.106Z,3.90
2017-12-28T02:56:29.542Z,3.90
2017-12-28T02:58:56.986Z,3.80
2017-12-28T03:01:24.418Z,3.80
2017-12-28T03:03:52.271Z,3.80
2017-12-28T03:06:20.566Z,3.90
2017-12-28T03:08:49.288Z,3.80
2017-12-28T03:11:16.730Z,3.80
2017-12-28T03:13:45.109Z,3.90
2017-12-28T03:16:12.558Z,3.90
2017-12-28T03:18:39.994Z,3.80
2017-12-28T03:21:07.439Z,3.90
2017-12-28T03:23:34.882Z,3.80
2017-12-28T03:26:02.328Z,3.90
2017-12-28T03:28:30.144Z,4.20
2017-12-28T03:30:57.589Z,4.20
2017-12-28T03:33:27.344Z,4.20
2017-12-28T03:35:54.779Z,4.20
2017-12-28T03:38:22.207Z,4.30
2017-12-28T03:40:50.031Z,4.50
2017-12-28T03:43:17.474Z,4.50
2017-12-28T03:45:44.919Z,4.40
2017-12-28T03:48:12.367Z,4.40
2017-12-28T03:50:39.810Z,4.50
2017-12-28T03:53:07.642Z,4.40
2017-12-28T03:55:37.050Z,4.40
2017-12-28T03:58:04.495Z,4.50
2017-12-28T04:00:31.962Z,4.40
2017-12-28T04:02:59.399Z,4.60
2017-12-28T04:05:26.886Z,4.70
2017-12-28T04:07:54.344Z,4.80
2017-12-28T04:10:21.787Z,4.80
2017-12-28T04:12:50.168Z,4.80
2017-12-28T04:15:17.606Z,4.60
2017-12-28T04:17:45.088Z,4.60
2017-12-28T04:20:12.533Z,4.50
2017-12-28T04:22:39.986Z,4.40
2017-12-28T04:25:07.425Z,4.50
2017-12-28T04:27:34.885Z,4.60
2017-12-28T04:30:02.331Z,4.60
2017-12-28T04:32:29.794Z,4.50
2017-12-28T04:34:57.225Z,4.40
2017-12-28T04:37:24.654Z,4.40
2017-12-28T04:39:52.087Z,4.40
2017-12-28T04:42:19.521Z,4.40
2017-12-28T04:44:46.961Z,4.40
2017-12-28T04:47:14.389Z,4.40
2017-12-28T04:49:42.230Z,4.20
2017-12-28T04:52:09.674Z,4.30
2017-12-28T04:54:38.037Z,4.20
2017-12-28T04:57:06.383Z,4.20
2017-12-28T04:59:34.221Z,4.20
2017-12-28T05:02:01.654Z,4.20
2017-12-28T05:04:31.042Z,4.30
2017-12-28T05:06:58.486Z,4.30
2017-12-28T05:09:25.957Z,4.30
2017-12-28T05:11:53.399Z,4.30
2017-12-28T05:14:20.844Z,4.40
2017-12-28T05:16:48.296Z,4.30
2017-12-28T05:19:16.989Z,4.20
2017-12-28T05:21:44.500Z,4.20
2017-12-28T05:24:12.817Z,4.10
2017-12-28T05:26:40.711Z,4.10
2017-12-28T05:29:08.129Z,4.20
2017-12-28T05:31:35.966Z,4.10
2017-12-28T05:34:03.413Z,4.20
2017-12-28T05:36:30.872Z,4.10
2017-12-28T05:38:58.322Z,4.10
2017-12-28T05:43:59.594Z,4.20
2017-12-28T05:46:27.043Z,4.20
2017-12-28T05:48:55.405Z,4.10
2017-12-28T05:51:22.846Z,4.20
2017-12-28T05:53:50.307Z,4.20
2017-12-28T05:56:17.746Z,4.20
2017-12-28T05:58:45.573Z,4.10
2017-12-28T06:01:13.942Z,4.10
2017-12-28T06:03:41.401Z,4.10
2017-12-28T06:06:08.833Z,4.10
2017-12-28T06:08:36.279Z,4.30
2017-12-28T06:11:04.881Z,4.30
2017-12-28T06:13:32.335Z,4.30
2017-12-28T06:15:59.793Z,4.30
2017-12-28T06:18:27.232Z,4.20
2017-12-28T06:20:54.694Z,4.20
2017-12-28T06:23:22.121Z,4.20
2017-12-28T06:25:51.902Z,4.20
2017-12-28T06:28:19.335Z,4.20
2017-12-28T06:30:46.782Z,4.00
2017-12-28T06:33:14.242Z,4.00
2017-12-28T06:35:42.558Z,4.00
2017-12-28T06:38:09.997Z,4.00
2017-12-28T06:40:37.426Z,4.00
2017-12-28T06:43:06.829Z,4.00
2017-12-28T06:45:34.267Z,4.00
2017-12-28T06:48:01.710Z,4.10
2017-12-28T06:50:29.554Z,4.00
2017-12-28T06:52:58.007Z,4.00
2017-12-28T06:55:25.441Z,4.10
2017-12-28T06:57:52.895Z,4.00
2017-12-28T07:00:22.331Z,4.00
2017-12-28T07:02:49.710Z,4.00
2017-12-28T07:05:17.158Z,3.90
2017-12-28T07:07:44.597Z,4.00
2017-12-28T07:10:13.059Z,4.00
2017-12-28T07:12:40.523Z,4.00
2017-12-28T07:15:08.000Z,4.00
2017-12-28T07:17:35.430Z,4.00
2017-12-28T07:20:02.854Z,4.00
2017-12-28T07:22:32.254Z,4.00
2017-12-28T07:25:00.075Z,3.90
2017-12-28T07:27:27.517Z,3.90
2017-12-28T07:29:54.948Z,3.90
2017-12-28T07:32:22.405Z,3.90
2017-12-28T07:34:49.834Z,3.90
2017-12-28T07:37:17.680Z,3.90
2017-12-28T07:39:45.121Z,3.90
2017-12-28T07:42:12.580Z,3.90
2017-12-28T07:44:40.036Z,3.90
2017-12-28T07:47:08.401Z,3.90
2017-12-28T07:49:35.841Z,3.80
2017-12-28T07:52:03.275Z,3.90
2017-12-28T07:54:31.106Z,3.90
2017-12-28T07:56:58.550Z,3.90
2017-12-28T07:59:27.058Z,4.00
2017-12-28T08:01:54.889Z,4.00
2017-12-28T08:04:23.097Z,4.00
2017-12-28T08:06:50.538Z,4.00
2017-12-28T08:09:17.969Z,4.10
2017-12-28T08:11:47.391Z,4.10
2017-12-28T08:14:14.838Z,4.20
2017-12-28T08:16:46.711Z,4.30
2017-12-28T08:19:14.164Z,4.30
2017-12-28T08:21:41.594Z,4.30
2017-12-28T08:24:09.150Z,4.40
2017-12-28T08:26:37.484Z,4.40
2017-12-28T08:29:04.922Z,4.30
2017-12-28T08:31:32.356Z,4.30
2017-12-28T08:33:59.830Z,4.30
2017-12-28T08:36:27.273Z,4.30
2017-12-28T08:38:54.713Z,4.40
2017-12-28T08:41:23.067Z,4.40
2017-12-28T08:43:51.771Z,4.40
2017-12-28T08:46:19.219Z,4.40
2017-12-28T08:48:46.650Z,4.40
2017-12-28T08:51:14.473Z,4.40
2017-12-28T08:53:41.933Z,4.50
2017-12-28T08:56:09.372Z,4.40
2017-12-28T08:58:36.813Z,4.30
2017-12-28T09:01:04.238Z,4.40
2017-12-28T09:03:32.118Z,4.40
2017-12-28T09:06:00.877Z,4.60
2017-12-28T09:08:28.334Z,4.50
2017-12-28T09:10:55.768Z,4.60
2017-12-28T09:13:23.209Z,4.60
2017-12-28T09:15:51.538Z,4.60
2017-12-28T09:18:18.957Z,4.60
2017-12-28T09:20:46.399Z,4.60
2017-12-28T09:23:14.744Z,4.60
2017-12-28T09:25:43.448Z,4.60
2017-12-28T09:28:10.901Z,4.60
2017-12-28T09:30:38.701Z,4.60
2017-12-28T09:33:06.145Z,4.60
2017-12-28T09:35:33.581Z,4.90
2017-12-28T09:38:01.010Z,5.00
2017-12-28T09:40:28.845Z,5.00
2017-12-28T09:42:56.293Z,5.00
2017-12-28T09:45:23.760Z,4.80
2017-12-28T09:47:51.192Z,4.80
2017-12-28T09:50:18.635Z,4.90
2017-12-28T09:52:46.093Z,4.80
2017-12-28T09:55:14.472Z,4.80
2017-12-28T09:57:41.918Z,4.80
2017-12-28T10:00:09.357Z,4.70
2017-12-28T10:02:37.206Z,4.40
2017-12-28T10:05:04.627Z,4.40
2017-12-28T10:07:33.818Z,4.40
2017-12-28T10:10:01.258Z,4.30
2017-12-28T10:12:28.728Z,4.30
2017-12-28T10:14:57.130Z,4.20
2017-12-28T10:17:25.450Z,4.30
2017-12-28T10:19:53.296Z,4.20
2017-12-28T10:22:20.726Z,4.20
2017-12-28T10:24:48.166Z,4.20
2017-12-28T10:27:15.593Z,4.30
2017-12-28T10:29:43.441Z,4.30
2017-12-28T10:32:11.764Z,4.30
2017-12-28T10:34:39.212Z,4.20
2017-12-28T10:37:08.380Z,4.20
2017-12-28T10:39:36.249Z,4.20
2017-12-28T10:42:04.070Z,4.20
2017-12-28T10:44:31.545Z,4.20
2017-12-28T10:46:58.993Z,4.10
2017-12-28T10:49:27.352Z,4.20
2017-12-28T10:51:54.799Z,4.30
2017-12-28T10:54:22.226Z,4.20
2017-12-28T10:56:50.974Z,4.10
2017-12-28T10:59:18.402Z,4.10
2017-12-28T11:01:45.841Z,4.10
2017-12-28T11:04:13.278Z,4.20
2017-12-28T11:06:41.102Z,4.40
2017-12-28T11:09:10.507Z,4.40
2017-12-28T11:11:37.981Z,4.40
2017-12-28T11:14:05.431Z,4.60
2017-12-28T11:16:32.870Z,4.60
2017-12-28T11:19:00.310Z,4.70
2017-12-28T11:21:27.754Z,4.60
2017-12-28T11:23:56.050Z,4.50
2017-12-28T11:26:23.494Z,4.50
2017-12-28T11:28:50.924Z,4.50
2017-12-28T11:31:18.771Z,4.60
2017-12-28T11:33:46.201Z,4.60
2017-12-28T11:36:13.655Z,4.70
2017-12-28T11:38:41.086Z,4.70
2017-12-28T11:41:09.466Z,4.60
2017-12-28T11:43:36.898Z,4.70
2017-12-28T11:46:05.117Z,4.70
2017-12-28T11:48:33.521Z,4.70
2017-12-28T11:51:00.979Z,4.80
2017-12-28T11:53:28.435Z,5.00
2017-12-28T11:56:12.521Z,5.10
2017-12-28T11:58:45.556Z,5.00
2017-12-28T12:01:22.886Z,5.00
2017-12-28T12:03:50.723Z,5.10
2017-12-28T12:06:23.860Z,5.10
2017-12-28T12:08:57.323Z,5.30
2017-12-28T12:11:24.760Z,5.20
2017-12-28T12:13:52.217Z,5.30
2017-12-28T12:16:20.553Z,5.30
2017-12-28T12:18:48.001Z,5.30
2017-12-28T12:21:16.109Z,5.00
2017-12-28T12:23:43.544Z,5.00
2017-12-28T12:26:10.977Z,4.80
2017-12-28T12:28:38.806Z,4.60
2017-12-28T12:31:06.285Z,4.60
2017-12-28T12:33:34.574Z,4.50
2017-12-28T12:36:02.410Z,4.30
2017-12-28T12:38:30.761Z,4.30
2017-12-28T12:40:58.202Z,4.30
2017-12-28T12:43:25.638Z,4.40
2017-12-28T12:45:53.485Z,4.50
2017-12-28T12:48:21.353Z,4.50
2017-12-28T12:50:49.204Z,4.50
2017-12-28T12:53:16.658Z,4.60
2017-12-28T12:55:44.996Z,4.60
2017-12-28T12:58:12.449Z,4.70
2017-12-28T13:00:39.889Z,4.90
2017-12-28T13:03:07.325Z,4.80
2017-12-28T13:05:36.027Z,4.70
2017-12-28T13:08:03.855Z,4.70
2017-12-28T13:10:31.296Z,4.70
2017-12-28T13:12:59.898Z,4.60
2017-12-28T13:15:29.274Z,4.60
2017-12-28T13:17:56.710Z,4.50
2017-12-28T13:20:24.146Z,4.40
2017-12-28T13:22:53.187Z,4.60
2017-12-28T13:25:20.641Z,4.60
2017-12-28T13:27:48.091Z,4.60
2017-12-28T13:30:15.545Z,4.80
2017-12-28T13:32:42.970Z,4.60
2017-12-28T13:35:10.813Z,4.50
2017-12-28T13:37:38.256Z,4.50
2017-12-28T13:40:05.692Z,4.50
2017-12-28T13:42:33.149Z,4.60
2017-12-28T13:45:01.528Z,4.70
2017-12-28T13:47:29.382Z,4.70
2017-12-28T13:49:57.770Z,4.60
2017-12-28T13:52:25.217Z,4.40
2017-12-28T13:54:53.082Z,4.30
2017-12-28T13:57:20.520Z,4.10
2017-12-28T13:59:47.960Z,4.10
2017-12-28T14:02:15.813Z,4.10
2017-12-28T14:04:44.142Z,4.10
2017-12-28T14:07:11.608Z,4.10
2017-12-28T14:09:39.069Z,4.30
2017-12-28T14:12:06.510Z,4.20
2017-12-28T14:14:34.845Z,4.20
2017-12-28T14:17:03.562Z,4.30
2017-12-28T14:19:31.007Z,4.30
2017-12-28T14:21:58.847Z,4.50
2017-12-28T14:24:27.909Z,4.50
2017-12-28T14:26:55.401Z,4.50
2017-12-28T14:29:22.854Z,4.50
2017-12-28T14:31:51.145Z,4.60
2017-12-28T14:34:19.897Z,4.70
2017-12-28T14:36:47.297Z,4.70
2017-12-28T14:39:15.166Z,4.50
2017-12-28T14:41:42.985Z,4.60
2017-12-28T14:44:10.438Z,4.60
2017-12-28T14:46:37.877Z,4.50
2017-12-28T14:49:07.257Z,4.30
2017-12-28T14:51:34.695Z,4.40
2017-12-28T14:54:03.449Z,4.40
2017-12-28T14:56:30.894Z,4.40
2017-12-28T14:58:58.379Z,4.40
2017-12-28T15:01:26.699Z,4.30
2017-12-28T15:03:56.130Z,4.40
2017-12-28T15:06:23.558Z,4.40
2017-12-28T15:08:51.000Z,4.40
2017-12-28T15:11:18.844Z,4.20
2017-12-28T15:13:46.630Z,4.20
2017-12-28T15:16:14.462Z,4.10
2017-12-28T15:18:41.934Z,4.10
2017-12-28T15:21:11.321Z,4.00
2017-12-28T15:23:38.797Z,3.90
2017-12-28T15:26:06.261Z,3.80
2017-12-28T15:28:34.099Z,3.60
2017-12-28T15:31:01.610Z,3.60
2017-12-28T15:33:29.040Z,3.60
2017-12-28T15:35:56.486Z,3.60
2017-12-28T15:38:23.959Z,3.60
2017-12-28T15:40:51.838Z,3.50
2017-12-28T15:43:19.690Z,3.60
2017-12-28T15:45:47.527Z,3.50
2017-12-28T15:48:16.942Z,3.50
2017-12-28T15:50:44.397Z,3.40
2017-12-28T15:53:11.855Z,3.40
2017-12-28T15:55:39.351Z,3.30
2017-12-28T15:58:08.138Z,3.10
2017-12-28T16:00:35.598Z,3.10
2017-12-28T16:03:03.052Z,3.00
2017-12-28T16:05:32.477Z,3.00
2017-12-28T16:07:59.950Z,3.00
2017-12-28T16:10:27.435Z,3.00
2017-12-28T16:12:54.894Z,2.80
2017-12-28T16:15:22.351Z,2.80
2017-12-28T16:17:49.810Z,2.70
2017-12-28T16:20:17.292Z,2.60
2017-12-28T16:22:44.735Z,2.60
2017-12-28T16:25:12.175Z,2.60
2017-12-28T16:27:39.641Z,2.50
2017-12-28T16:30:07.080Z,2.60
2017-12-28T16:32:34.526Z,2.60
2017-12-28T16:35:01.977Z,2.50
2017-12-28T16:37:29.428Z,2.50
2017-12-28T16:39:56.895Z,2.40
2017-12-28T16:42:24.358Z,2.30
2017-12-28T16:44:51.813Z,2.30
2017-12-28T16:47:19.300Z,2.30
2017-12-28T16:49:46.766Z,2.20
2017-12-28T16:52:14.610Z,2.10
2017-12-28T16:54:42.080Z,2.10
2017-12-28T16:57:09.570Z,2.10
2017-12-28T16:59:37.022Z,2.10
2017-12-28T17:02:04.489Z,2.10
2017-12-28T17:04:31.933Z,2.10
2017-12-28T17:06:59.382Z,2.00
2017-12-28T17:09:27.224Z,1.90
2017-12-28T17:11:54.658Z,2.00
2017-12-28T17:14:23.034Z,1.90
2017-12-28T17:16:50.490Z,1.90
2017-12-28T17:19:17.925Z,1.90
2017-12-28T17:21:45.366Z,1.80
2017-12-28T17:24:12.821Z,1.80
2017-12-28T17:26:40.269Z,1.80
2017-12-28T17:29:07.727Z,1.80
2017-12-28T17:31:35.603Z,1.80
2017-12-28T17:34:03.909Z,1.80
2017-12-28T17:36:31.350Z,1.80
2017-12-28T17:38:58.781Z,1.80
2017-12-28T17:41:26.624Z,1.70
2017-12-28T17:43:54.066Z,1.70
2017-12-28T17:46:21.501Z,1.60
2017-12-28T17:48:48.942Z,1.70
2017-12-28T17:51:16.385Z,1.70
2017-12-28T17:53:43.830Z,1.70
2017-12-28T17:56:11.670Z,1.50
2017-12-28T17:58:39.103Z,1.50
2017-12-28T18:01:06.535Z,1.50
2017-12-28T18:03:34.018Z,1.50
2017-12-28T18:06:01.602Z,1.50
2017-12-28T18:08:29.041Z,1.60
2017-12-28T18:10:57.354Z,1.50
2017-12-28T18:13:25.186Z,1.80
2017-12-28T18:15:52.617Z,1.80
2017-12-28T18:18:20.050Z,1.80
2017-12-28T18:20:49.457Z,1.80
2017-12-28T18:23:16.894Z,1.80
2017-12-28T18:25:45.607Z,1.90
2017-12-28T18:28:13.034Z,1.90
2017-12-28T18:30:40.889Z,1.90
2017-12-28T18:33:08.734Z,1.90
2017-12-28T18:35:36.166Z,1.90
2017-12-28T18:38:03.641Z,1.90
2017-12-28T18:40:31.094Z,1.90
2017-12-28T18:42:59.434Z,1.90
2017-12-28T18:45:28.185Z,2.00
2017-12-28T18:47:55.634Z,2.00
2017-12-28T18:50:23.070Z,1.90
2017-12-28T18:52:52.453Z,1.90
2017-12-28T18:55:19.890Z,1.90
2017-12-28T18:57:47.338Z,1.80
2017-12-28T19:00:15.235Z,1.60
2017-12-28T19:02:42.621Z,1.60
2017-12-28T19:05:11.062Z,1.60
2017-12-28T19:07:38.514Z,1.50
2017-12-28T19:10:05.962Z,1.40
2017-12-28T19:12:33.798Z,1.30
2017-12-28T19:15:01.242Z,1.30
2017-12-28T19:17:29.567Z,1.20
2017-12-28T19:19:57.027Z,1.20
2017-12-28T19:22:24.465Z,1.20
2017-12-28T19:24:52.310Z,1.10
2017-12-28T19:27:19.766Z,1.10
2017-12-28T19:29:48.095Z,1.00
2017-12-28T19:32:15.555Z,1.00
2017-12-28T19:34:42.997Z,1.00
2017-12-28T19:37:11.390Z,1.00
2017-12-28T19:39:38.846Z,1.00
2017-12-28T19:42:06.330Z,0.90
2017-12-28T19:44:34.711Z,0.90
2017-12-28T19:47:02.138Z,0.90
2017-12-28T19:49:29.598Z,0.80
2017-12-28T19:51:57.021Z,0.80
2017-12-28T19:54:24.865Z,0.90
2017-12-28T19:56:52.314Z,0.90
2017-12-28T19:59:19.753Z,0.90
2017-12-28T20:01:47.188Z,0.80
2017-12-28T20:04:14.646Z,0.90
2017-12-28T20:06:42.138Z,0.80
2017-12-28T20:09:09.625Z,0.80
2017-12-28T20:11:37.469Z,0.90
2017-12-28T20:14:06.897Z,0.90
2017-12-28T20:16:35.655Z,0.90
2017-12-28T20:19:03.992Z,0.90
2017-12-28T20:21:31.453Z,1.00
2017-12-28T20:23:58.885Z,0.90
2017-12-28T20:26:26.315Z,0.90
2017-12-28T20:28:53.741Z,1.20
2017-12-28T20:31:21.216Z,1.10
2017-12-28T20:33:48.637Z,1.00
2017-12-28T20:36:16.093Z,1.10
2017-12-28T20:38:43.535Z,1.10
2017-12-28T20:41:10.993Z,0.90
2017-12-28T20:43:38.473Z,1.00
2017-12-28T20:46:05.951Z,1.00
2017-12-28T20:48:33.374Z,1.00
2017-12-28T20:51:00.801Z,1.10
2017-12-28T20:53:28.647Z,0.90
2017-12-28T20:55:56.068Z,0.90
2017-12-28T20:58:23.500Z,1.10
2017-12-28T21:00:50.954Z,1.00
2017-12-28T21:03:19.325Z,1.10
2017-12-28T21:05:46.785Z,1.10
2017-12-28T21:08:14.220Z,0.90
2017-12-28T21:10:41.680Z,0.90
2017-12-28T21:13:09.546Z,0.70
2017-12-28T21:15:37.373Z,0.80
2017-12-28T21:18:04.816Z,0.80
2017-12-28T21:20:32.241Z,0.80
2017-12-28T21:23:02.018Z,0.70
2017-12-28T21:25:29.440Z,0.70
2017-12-28T21:27:56.890Z,0.70
2017-12-28T21:30:24.355Z,0.80
2017-12-28T21:32:51.786Z,0.70
2017-12-28T21:35:19.213Z,0.60
2017-12-28T21:37:46.676Z,0.80
2017-12-28T21:40:14.534Z,0.60
2017-12-28T21:42:41.970Z,0.60
2017-12-28T21:45:09.403Z,0.50
2017-12-28T21:47:37.744Z,0.40
2017-12-28T21:50:05.566Z,0.30
2017-12-28T21:52:33.001Z,0.40
2017-12-28T21:55:00.437Z,0.30
2017-12-28T21:57:27.873Z,0.30
2017-12-28T21:59:55.757Z,0.10
2017-12-28T22:02:23.213Z,0.10
2017-12-28T22:04:51.457Z,0.10
2017-12-28T22:07:18.917Z,0.20
2017-12-28T22:09:46.381Z,0.10
2017-12-28T22:12:14.212Z,0.10
2017-12-28T22:14:41.662Z,0.10
2017-12-28T22:17:09.085Z,0.10
2017-12-28T22:19:36.551Z,0.20
2017-12-28T22:22:05.001Z,0.20
2017-12-28T22:24:33.316Z,0.20
2017-12-28T22:27:00.745Z,0.30
2017-12-28T22:29:28.657Z,0.40
2017-12-28T22:31:56.096Z,0.40
2017-12-28T22:34:23.558Z,0.50
2017-12-28T22:36:51.012Z,0.40
2017-12-28T22:39:18.481Z,0.30
2017-12-28T22:41:45.914Z,0.30
2017-12-28T22:44:13.347Z,0.40
2017-12-28T22:46:41.189Z,0.50
2017-12-28T22:49:08.625Z,0.50
2017-12-28T22:51:36.197Z,0.40
2017-12-28T22:54:03.619Z,0.40
2017-12-28T22:56:31.062Z,0.40
2017-12-28T22:58:58.504Z,0.40
2017-12-28T23:01:26.348Z,0.50
2017-12-28T23:03:53.774Z,0.50
2017-12-28T23:06:21.211Z,0.40
2017-12-28T23:08:49.634Z,0.30
2017-12-28T23:11:17.072Z,0.30
2017-12-28T23:13:44.509Z,0.40
2017-12-28T23:16:12.337Z,0.40
2017-12-28T23:18:40.224Z,0.40
2017-12-28T23:21:07.705Z,0.40
2017-12-28T23:23:35.161Z,0.40
2017-12-28T23:26:03.516Z,0.30
2017-12-28T23:28:30.965Z,0.30
2017-12-28T23:30:58.785Z,0.30
2017-12-28T23:33:26.249Z,0.30
2017-12-28T23:35:54.644Z,0.40
2017-12-28T23:38:22.491Z,0.40
2017-12-28T23:40:50.076Z,0.40
2017-12-28T23:43:19.469Z,0.40
2017-12-28T23:45:46.934Z,0.50
2017-12-28T23:48:14.376Z,0.40
2017-12-28T23:50:42.672Z,0.40
2017-12-28T23:53:11.414Z,0.40
2017-12-28T23:55:38.891Z,0.40
2017-12-28T23:58:06.351Z,0.50
